sensor_id;sensor_type;location;lat;lon;timestamp;temperature;humidity
83405;SHT30;73331;48.168;20.776;2024-03-02T00:00:20;8.08;84.40
83405;SHT30;73331;48.168;20.776;2024-03-02T00:01:51;7.95;85.10
83405;SHT30;73331;48.168;20.776;2024-03-02T00:03:22;7.91;85.50
83405;SHT30;73331;48.168;20.776;2024-03-02T00:04:52;7.86;85.70
83405;SHT30;73331;48.168;20.776;2024-03-02T00:06:23;8.14;85.03
83405;SHT30;73331;48.168;20.776;2024-03-02T00:07:55;8.20;84.10
83405;SHT30;73331;48.168;20.776;2024-03-02T00:09:26;8.01;84.94
83405;SHT30;73331;48.168;20.776;2024-03-02T00:10:58;8.38;83.97
83405;SHT30;73331;48.168;20.776;2024-03-02T00:12:29;8.10;84.47
83405;SHT30;73331;48.168;20.776;2024-03-02T00:13:59;8.08;84.72
83405;SHT30;73331;48.168;20.776;2024-03-02T00:15:39;8.07;84.59
83405;SHT30;73331;48.168;20.776;2024-03-02T00:17:19;7.90;85.46
83405;SHT30;73331;48.168;20.776;2024-03-02T00:18:51;7.71;86.36
83405;SHT30;73331;48.168;20.776;2024-03-02T00:20:22;7.58;86.94
83405;SHT30;73331;48.168;20.776;2024-03-02T00:21:53;7.56;86.98
83405;SHT30;73331;48.168;20.776;2024-03-02T00:23:29;7.58;87.11
83405;SHT30;73331;48.168;20.776;2024-03-02T00:24:59;7.71;87.06
83405;SHT30;73331;48.168;20.776;2024-03-02T00:26:30;7.65;87.18
83405;SHT30;73331;48.168;20.776;2024-03-02T00:28:00;7.60;87.73
83405;SHT30;73331;48.168;20.776;2024-03-02T00:29:31;7.55;87.87
83405;SHT30;73331;48.168;20.776;2024-03-02T00:31:06;7.55;87.87
83405;SHT30;73331;48.168;20.776;2024-03-02T00:32:43;7.62;87.80
83405;SHT30;73331;48.168;20.776;2024-03-02T00:34:14;7.66;87.65
83405;SHT30;73331;48.168;20.776;2024-03-02T00:35:48;8.08;85.79
83405;SHT30;73331;48.168;20.776;2024-03-02T00:37:19;7.94;86.21
83405;SHT30;73331;48.168;20.776;2024-03-02T00:38:51;7.89;86.42
83405;SHT30;73331;48.168;20.776;2024-03-02T00:40:28;7.98;86.59
83405;SHT30;73331;48.168;20.776;2024-03-02T00:41:59;8.01;86.00
83405;SHT30;73331;48.168;20.776;2024-03-02T00:43:47;8.01;86.11
83405;SHT30;73331;48.168;20.776;2024-03-02T00:45:17;8.03;86.23
83405;SHT30;73331;48.168;20.776;2024-03-02T00:46:48;8.03;86.15
83405;SHT30;73331;48.168;20.776;2024-03-02T00:48:18;7.98;86.13
83405;SHT30;73331;48.168;20.776;2024-03-02T00:49:49;8.30;85.37
83405;SHT30;73331;48.168;20.776;2024-03-02T00:51:21;8.58;83.56
83405;SHT30;73331;48.168;20.776;2024-03-02T00:52:52;8.80;82.73
83405;SHT30;73331;48.168;20.776;2024-03-02T00:54:25;8.96;82.15
83405;SHT30;73331;48.168;20.776;2024-03-02T00:55:55;8.59;83.15
83405;SHT30;73331;48.168;20.776;2024-03-02T00:57:28;8.56;83.77
83405;SHT30;73331;48.168;20.776;2024-03-02T00:59:00;8.46;84.02
83405;SHT30;73331;48.168;20.776;2024-03-02T01:00:31;8.78;82.90
83405;SHT30;73331;48.168;20.776;2024-03-02T01:02:01;8.37;83.99
83405;SHT30;73331;48.168;20.776;2024-03-02T01:03:33;8.05;85.27
83405;SHT30;73331;48.168;20.776;2024-03-02T01:05:03;7.93;86.19
83405;SHT30;73331;48.168;20.776;2024-03-02T01:06:35;8.03;85.93
83405;SHT30;73331;48.168;20.776;2024-03-02T01:08:06;8.24;84.78
83405;SHT30;73331;48.168;20.776;2024-03-02T01:09:36;8.03;85.84
83405;SHT30;73331;48.168;20.776;2024-03-02T01:11:07;7.83;86.81
83405;SHT30;73331;48.168;20.776;2024-03-02T01:12:38;7.79;87.12
83405;SHT30;73331;48.168;20.776;2024-03-02T01:14:08;7.87;87.18
83405;SHT30;73331;48.168;20.776;2024-03-02T01:15:39;8.08;86.52
83405;SHT30;73331;48.168;20.776;2024-03-02T01:17:09;8.28;85.30
83405;SHT30;73331;48.168;20.776;2024-03-02T01:18:40;8.05;86.11
83405;SHT30;73331;48.168;20.776;2024-03-02T01:20:11;7.91;86.79
83405;SHT30;73331;48.168;20.776;2024-03-02T01:21:41;7.91;87.22
83405;SHT30;73331;48.168;20.776;2024-03-02T01:23:12;8.00;86.86
83405;SHT30;73331;48.168;20.776;2024-03-02T01:24:42;8.03;86.62
83405;SHT30;73331;48.168;20.776;2024-03-02T01:26:13;8.01;86.60
83405;SHT30;73331;48.168;20.776;2024-03-02T01:27:43;8.08;86.78
83405;SHT30;73331;48.168;20.776;2024-03-02T01:29:13;8.34;85.13
83405;SHT30;73331;48.168;20.776;2024-03-02T01:30:44;8.75;83.53
83405;SHT30;73331;48.168;20.776;2024-03-02T01:32:15;8.89;82.83
83405;SHT30;73331;48.168;20.776;2024-03-02T01:33:46;8.95;82.45
83405;SHT30;73331;48.168;20.776;2024-03-02T01:35:16;8.93;82.51
83405;SHT30;73331;48.168;20.776;2024-03-02T01:36:47;8.96;82.36
83405;SHT30;73331;48.168;20.776;2024-03-02T01:38:17;9.02;82.04
83405;SHT30;73331;48.168;20.776;2024-03-02T01:39:48;9.06;81.77
83405;SHT30;73331;48.168;20.776;2024-03-02T01:41:18;9.05;81.87
83405;SHT30;73331;48.168;20.776;2024-03-02T01:42:49;9.07;81.85
83405;SHT30;73331;48.168;20.776;2024-03-02T01:44:19;9.06;81.98
83405;SHT30;73331;48.168;20.776;2024-03-02T01:45:50;8.73;82.86
83405;SHT30;73331;48.168;20.776;2024-03-02T01:47:20;8.76;82.78
83405;SHT30;73331;48.168;20.776;2024-03-02T01:48:51;8.75;82.76
83405;SHT30;73331;48.168;20.776;2024-03-02T01:50:26;8.97;81.82
83405;SHT30;73331;48.168;20.776;2024-03-02T01:51:57;8.66;82.88
83405;SHT30;73331;48.168;20.776;2024-03-02T01:53:27;8.30;84.18
83405;SHT30;73331;48.168;20.776;2024-03-02T01:54:58;8.08;85.16
83405;SHT30;73331;48.168;20.776;2024-03-02T01:56:29;8.00;85.72
83405;SHT30;73331;48.168;20.776;2024-03-02T01:57:59;7.97;85.89
83405;SHT30;73331;48.168;20.776;2024-03-02T01:59:30;7.89;86.30
83405;SHT30;73331;48.168;20.776;2024-03-02T02:01:01;7.95;86.47
83405;SHT30;73331;48.168;20.776;2024-03-02T02:02:31;7.94;86.28
83405;SHT30;73331;48.168;20.776;2024-03-02T02:04:02;8.01;86.15
83405;SHT30;73331;48.168;20.776;2024-03-02T02:05:33;7.98;86.29
83405;SHT30;73331;48.168;20.776;2024-03-02T02:07:05;8.30;85.50
83405;SHT30;73331;48.168;20.776;2024-03-02T02:08:37;8.68;83.43
83405;SHT30;73331;48.168;20.776;2024-03-02T02:10:09;8.51;83.56
83405;SHT30;73331;48.168;20.776;2024-03-02T02:11:40;8.21;84.73
83405;SHT30;73331;48.168;20.776;2024-03-02T02:13:11;8.11;85.21
83405;SHT30;73331;48.168;20.776;2024-03-02T02:14:47;8.03;85.77
83405;SHT30;73331;48.168;20.776;2024-03-02T02:16:18;8.04;85.87
83405;SHT30;73331;48.168;20.776;2024-03-02T02:17:49;7.98;85.98
83405;SHT30;73331;48.168;20.776;2024-03-02T02:19:19;7.98;86.13
83405;SHT30;73331;48.168;20.776;2024-03-02T02:20:50;7.97;86.49
83405;SHT30;73331;48.168;20.776;2024-03-02T02:22:20;7.97;86.59
83405;SHT30;73331;48.168;20.776;2024-03-02T02:23:51;7.98;86.71
83405;SHT30;73331;48.168;20.776;2024-03-02T02:25:21;7.94;86.53
83405;SHT30;73331;48.168;20.776;2024-03-02T02:26:52;8.03;86.46
83405;SHT30;73331;48.168;20.776;2024-03-02T02:28:22;7.94;86.51
83405;SHT30;73331;48.168;20.776;2024-03-02T02:29:53;7.93;86.90
83405;SHT30;73331;48.168;20.776;2024-03-02T02:31:23;7.93;86.94
83405;SHT30;73331;48.168;20.776;2024-03-02T02:32:54;7.80;87.06
83405;SHT30;73331;48.168;20.776;2024-03-02T02:34:24;7.77;87.41
83405;SHT30;73331;48.168;20.776;2024-03-02T02:35:55;7.83;87.52
83405;SHT30;73331;48.168;20.776;2024-03-02T02:37:25;7.83;87.45
83405;SHT30;73331;48.168;20.776;2024-03-02T02:38:56;7.79;87.67
83405;SHT30;73331;48.168;20.776;2024-03-02T02:40:27;8.25;86.28
83405;SHT30;73331;48.168;20.776;2024-03-02T02:42:00;8.64;84.38
83405;SHT30;73331;48.168;20.776;2024-03-02T02:43:33;8.90;83.03
83405;SHT30;73331;48.168;20.776;2024-03-02T02:45:03;8.92;82.92
83405;SHT30;73331;48.168;20.776;2024-03-02T02:46:34;8.90;82.63
83405;SHT30;73331;48.168;20.776;2024-03-02T02:48:05;8.46;84.05
83405;SHT30;73331;48.168;20.776;2024-03-02T02:49:36;8.23;85.20
83405;SHT30;73331;48.168;20.776;2024-03-02T02:51:06;8.01;86.25
83405;SHT30;73331;48.168;20.776;2024-03-02T02:52:38;7.93;86.85
83405;SHT30;73331;48.168;20.776;2024-03-02T02:54:10;7.91;87.24
83405;SHT30;73331;48.168;20.776;2024-03-02T02:55:40;7.90;87.44
83405;SHT30;73331;48.168;20.776;2024-03-02T02:57:11;7.83;87.48
83405;SHT30;73331;48.168;20.776;2024-03-02T02:58:42;7.83;87.57
83405;SHT30;73331;48.168;20.776;2024-03-02T03:00:14;7.79;87.59
83405;SHT30;73331;48.168;20.776;2024-03-02T03:01:45;7.77;87.70
83405;SHT30;73331;48.168;20.776;2024-03-02T03:03:15;7.73;87.85
83405;SHT30;73331;48.168;20.776;2024-03-02T03:04:46;7.70;88.10
83405;SHT30;73331;48.168;20.776;2024-03-02T03:06:16;7.81;87.78
83405;SHT30;73331;48.168;20.776;2024-03-02T03:07:46;7.83;87.72
83405;SHT30;73331;48.168;20.776;2024-03-02T03:09:20;7.89;87.48
83405;SHT30;73331;48.168;20.776;2024-03-02T03:10:51;7.83;87.51
83405;SHT30;73331;48.168;20.776;2024-03-02T03:12:21;7.79;87.79
83405;SHT30;73331;48.168;20.776;2024-03-02T03:13:53;7.80;87.83
83405;SHT30;73331;48.168;20.776;2024-03-02T03:15:24;7.74;87.93
83405;SHT30;73331;48.168;20.776;2024-03-02T03:16:55;7.69;88.26
83405;SHT30;73331;48.168;20.776;2024-03-02T03:18:26;7.69;88.34
83405;SHT30;73331;48.168;20.776;2024-03-02T03:19:57;7.63;88.54
83405;SHT30;73331;48.168;20.776;2024-03-02T03:21:27;7.60;88.66
83405;SHT30;73331;48.168;20.776;2024-03-02T03:22:58;7.66;88.59
83405;SHT30;73331;48.168;20.776;2024-03-02T03:24:29;7.67;88.48
83405;SHT30;73331;48.168;20.776;2024-03-02T03:25:59;7.76;88.32
83405;SHT30;73331;48.168;20.776;2024-03-02T03:27:30;7.81;88.13
83405;SHT30;73331;48.168;20.776;2024-03-02T03:29:00;7.94;87.77
83405;SHT30;73331;48.168;20.776;2024-03-02T03:30:32;7.89;87.30
83405;SHT30;73331;48.168;20.776;2024-03-02T03:32:03;7.90;87.46
83405;SHT30;73331;48.168;20.776;2024-03-02T03:33:35;7.86;87.51
83405;SHT30;73331;48.168;20.776;2024-03-02T03:35:05;7.90;87.50
83405;SHT30;73331;48.168;20.776;2024-03-02T03:36:36;7.87;87.72
83405;SHT30;73331;48.168;20.776;2024-03-02T03:38:07;7.94;87.58
83405;SHT30;73331;48.168;20.776;2024-03-02T03:39:37;7.97;87.56
83405;SHT30;73331;48.168;20.776;2024-03-02T03:41:08;8.07;87.15
83405;SHT30;73331;48.168;20.776;2024-03-02T03:42:38;8.13;87.28
83405;SHT30;73331;48.168;20.776;2024-03-02T03:44:09;8.52;85.80
83405;SHT30;73331;48.168;20.776;2024-03-02T03:45:39;8.54;85.13
83405;SHT30;73331;48.168;20.776;2024-03-02T03:47:10;8.92;83.78
83405;SHT30;73331;48.168;20.776;2024-03-02T03:48:40;8.92;83.32
83405;SHT30;73331;48.168;20.776;2024-03-02T03:50:12;9.03;82.89
83405;SHT30;73331;48.168;20.776;2024-03-02T03:51:43;8.86;83.42
83405;SHT30;73331;48.168;20.776;2024-03-02T03:53:13;9.05;82.83
83405;SHT30;73331;48.168;20.776;2024-03-02T03:54:44;8.72;84.10
83405;SHT30;73331;48.168;20.776;2024-03-02T03:56:15;8.48;85.29
83405;SHT30;73331;48.168;20.776;2024-03-02T03:57:45;8.90;84.23
83405;SHT30;73331;48.168;20.776;2024-03-02T03:59:16;8.76;84.14
83405;SHT30;73331;48.168;20.776;2024-03-02T04:00:46;8.38;86.04
83405;SHT30;73331;48.168;20.776;2024-03-02T04:02:17;8.20;87.21
83405;SHT30;73331;48.168;20.776;2024-03-02T04:03:48;8.59;85.86
83405;SHT30;73331;48.168;20.776;2024-03-02T04:05:18;8.90;84.05
83405;SHT30;73331;48.168;20.776;2024-03-02T04:06:49;8.56;85.11
83405;SHT30;73331;48.168;20.776;2024-03-02T04:08:19;8.76;84.75
83405;SHT30;73331;48.168;20.776;2024-03-02T04:09:50;8.96;83.79
83405;SHT30;73331;48.168;20.776;2024-03-02T04:11:21;9.03;83.52
83405;SHT30;73331;48.168;20.776;2024-03-02T04:12:52;8.49;85.37
83405;SHT30;73331;48.168;20.776;2024-03-02T04:14:22;8.13;87.43
83405;SHT30;73331;48.168;20.776;2024-03-02T04:15:53;7.98;88.20
83405;SHT30;73331;48.168;20.776;2024-03-02T04:17:24;7.94;88.60
83405;SHT30;73331;48.168;20.776;2024-03-02T04:18:54;7.94;88.97
83405;SHT30;73331;48.168;20.776;2024-03-02T04:20:25;7.91;88.99
83405;SHT30;73331;48.168;20.776;2024-03-02T04:21:55;7.89;88.98
83405;SHT30;73331;48.168;20.776;2024-03-02T04:23:26;7.81;89.28
83405;SHT30;73331;48.168;20.776;2024-03-02T04:24:57;7.79;89.55
83405;SHT30;73331;48.168;20.776;2024-03-02T04:26:27;7.73;89.76
83405;SHT30;73331;48.168;20.776;2024-03-02T04:27:57;7.73;89.89
83405;SHT30;73331;48.168;20.776;2024-03-02T04:29:28;7.73;89.91
83405;SHT30;73331;48.168;20.776;2024-03-02T04:30:58;7.74;89.80
83405;SHT30;73331;48.168;20.776;2024-03-02T04:32:29;7.76;89.79
83405;SHT30;73331;48.168;20.776;2024-03-02T04:34:00;7.83;89.84
83405;SHT30;73331;48.168;20.776;2024-03-02T04:35:30;7.91;89.58
83405;SHT30;73331;48.168;20.776;2024-03-02T04:37:01;7.84;89.68
83405;SHT30;73331;48.168;20.776;2024-03-02T04:38:31;7.80;89.67
83405;SHT30;73331;48.168;20.776;2024-03-02T04:40:02;7.84;89.77
83405;SHT30;73331;48.168;20.776;2024-03-02T04:41:33;7.94;89.71
83405;SHT30;73331;48.168;20.776;2024-03-02T04:43:03;7.97;89.50
83405;SHT30;73331;48.168;20.776;2024-03-02T04:44:34;8.07;89.12
83405;SHT30;73331;48.168;20.776;2024-03-02T04:46:05;8.05;89.03
83405;SHT30;73331;48.168;20.776;2024-03-02T04:47:36;8.10;88.89
83405;SHT30;73331;48.168;20.776;2024-03-02T04:49:06;8.07;89.02
83405;SHT30;73331;48.168;20.776;2024-03-02T04:50:37;8.10;89.24
83405;SHT30;73331;48.168;20.776;2024-03-02T04:52:07;8.20;89.25
83405;SHT30;73331;48.168;20.776;2024-03-02T04:53:37;8.30;88.59
83405;SHT30;73331;48.168;20.776;2024-03-02T04:55:08;8.37;88.28
83405;SHT30;73331;48.168;20.776;2024-03-02T04:56:57;8.23;88.64
83405;SHT30;73331;48.168;20.776;2024-03-02T04:58:28;8.25;88.78
83405;SHT30;73331;48.168;20.776;2024-03-02T04:59:59;8.18;88.93
83405;SHT30;73331;48.168;20.776;2024-03-02T05:01:29;8.17;89.00
83405;SHT30;73331;48.168;20.776;2024-03-02T05:03:00;8.21;89.18
83405;SHT30;73331;48.168;20.776;2024-03-02T05:04:30;8.24;89.32
83405;SHT30;73331;48.168;20.776;2024-03-02T05:06:01;8.24;89.50
83405;SHT30;73331;48.168;20.776;2024-03-02T05:07:31;8.25;89.26
83405;SHT30;73331;48.168;20.776;2024-03-02T05:09:02;8.25;89.42
83405;SHT30;73331;48.168;20.776;2024-03-02T05:10:32;8.21;89.43
83405;SHT30;73331;48.168;20.776;2024-03-02T05:12:03;8.20;89.54
83405;SHT30;73331;48.168;20.776;2024-03-02T05:13:39;8.10;89.78
83405;SHT30;73331;48.168;20.776;2024-03-02T05:15:11;8.08;90.08
83405;SHT30;73331;48.168;20.776;2024-03-02T05:16:42;8.11;90.25
83405;SHT30;73331;48.168;20.776;2024-03-02T05:18:12;8.11;90.18
83405;SHT30;73331;48.168;20.776;2024-03-02T05:19:43;8.08;89.97
83405;SHT30;73331;48.168;20.776;2024-03-02T05:21:13;8.10;89.96
83405;SHT30;73331;48.168;20.776;2024-03-02T05:22:44;8.10;89.97
83405;SHT30;73331;48.168;20.776;2024-03-02T05:24:14;8.10;90.03
83405;SHT30;73331;48.168;20.776;2024-03-02T05:25:45;8.05;89.87
83405;SHT30;73331;48.168;20.776;2024-03-02T05:27:15;8.04;90.26
83405;SHT30;73331;48.168;20.776;2024-03-02T05:28:46;8.05;90.19
83405;SHT30;73331;48.168;20.776;2024-03-02T05:30:16;8.17;90.20
83405;SHT30;73331;48.168;20.776;2024-03-02T05:31:47;8.76;88.04
83405;SHT30;73331;48.168;20.776;2024-03-02T05:33:18;8.97;86.54
83405;SHT30;73331;48.168;20.776;2024-03-02T05:34:49;9.09;86.09
83405;SHT30;73331;48.168;20.776;2024-03-02T05:36:20;9.16;85.52
83405;SHT30;73331;48.168;20.776;2024-03-02T05:37:51;9.22;85.23
83405;SHT30;73331;48.168;20.776;2024-03-02T05:39:21;9.06;85.82
83405;SHT30;73331;48.168;20.776;2024-03-02T05:40:52;9.00;85.66
83405;SHT30;73331;48.168;20.776;2024-03-02T05:42:22;9.02;85.70
83405;SHT30;73331;48.168;20.776;2024-03-02T05:43:53;8.82;86.67
83405;SHT30;73331;48.168;20.776;2024-03-02T05:45:23;8.65;87.57
83405;SHT30;73331;48.168;20.776;2024-03-02T05:46:54;8.59;87.89
83405;SHT30;73331;48.168;20.776;2024-03-02T05:48:25;8.61;87.74
83405;SHT30;73331;48.168;20.776;2024-03-02T05:49:56;8.48;88.45
83405;SHT30;73331;48.168;20.776;2024-03-02T05:51:26;8.38;89.00
83405;SHT30;73331;48.168;20.776;2024-03-02T05:52:57;8.28;89.41
83405;SHT30;73331;48.168;20.776;2024-03-02T05:54:27;8.25;89.66
83405;SHT30;73331;48.168;20.776;2024-03-02T05:55:58;8.23;89.86
83405;SHT30;73331;48.168;20.776;2024-03-02T05:57:28;8.58;88.83
83405;SHT30;73331;48.168;20.776;2024-03-02T05:59:14;9.03;86.16
83405;SHT30;73331;48.168;20.776;2024-03-02T06:00:45;9.24;85.49
83405;SHT30;73331;48.168;20.776;2024-03-02T06:02:16;9.27;85.15
83405;SHT30;73331;48.168;20.776;2024-03-02T06:03:46;9.20;85.28
83405;SHT30;73331;48.168;20.776;2024-03-02T06:05:17;9.13;85.33
83405;SHT30;73331;48.168;20.776;2024-03-02T06:06:49;9.19;85.36
83405;SHT30;73331;48.168;20.776;2024-03-02T06:08:19;8.96;86.26
83405;SHT30;73331;48.168;20.776;2024-03-02T06:09:50;9.06;86.04
83405;SHT30;73331;48.168;20.776;2024-03-02T06:11:22;8.85;86.74
83405;SHT30;73331;48.168;20.776;2024-03-02T06:12:53;9.02;85.88
83405;SHT30;73331;48.168;20.776;2024-03-02T06:14:23;9.06;85.83
83405;SHT30;73331;48.168;20.776;2024-03-02T06:15:54;8.90;86.62
83405;SHT30;73331;48.168;20.776;2024-03-02T06:17:24;8.66;87.60
83405;SHT30;73331;48.168;20.776;2024-03-02T06:18:55;8.48;88.62
83405;SHT30;73331;48.168;20.776;2024-03-02T06:20:27;8.45;89.08
83405;SHT30;73331;48.168;20.776;2024-03-02T06:22:01;8.38;89.67
83405;SHT30;73331;48.168;20.776;2024-03-02T06:23:31;8.34;90.04
83405;SHT30;73331;48.168;20.776;2024-03-02T06:25:02;8.31;90.34
83405;SHT30;73331;48.168;20.776;2024-03-02T06:26:33;8.37;90.42
83405;SHT30;73331;48.168;20.776;2024-03-02T06:28:04;8.34;90.51
83405;SHT30;73331;48.168;20.776;2024-03-02T06:29:34;8.23;90.78
83405;SHT30;73331;48.168;20.776;2024-03-02T06:31:05;8.44;90.25
83405;SHT30;73331;48.168;20.776;2024-03-02T06:32:35;8.28;90.76
83405;SHT30;73331;48.168;20.776;2024-03-02T06:34:06;8.31;90.72
83405;SHT30;73331;48.168;20.776;2024-03-02T06:35:36;8.18;91.23
83405;SHT30;73331;48.168;20.776;2024-03-02T06:37:07;8.08;91.64
83405;SHT30;73331;48.168;20.776;2024-03-02T06:38:37;8.08;91.88
83405;SHT30;73331;48.168;20.776;2024-03-02T06:40:09;8.14;91.75
83405;SHT30;73331;48.168;20.776;2024-03-02T06:41:40;8.20;91.73
83405;SHT30;73331;48.168;20.776;2024-03-02T06:43:11;8.14;91.71
83405;SHT30;73331;48.168;20.776;2024-03-02T06:44:41;8.14;91.78
83405;SHT30;73331;48.168;20.776;2024-03-02T06:46:12;8.08;91.89
83405;SHT30;73331;48.168;20.776;2024-03-02T06:47:44;8.05;91.95
83405;SHT30;73331;48.168;20.776;2024-03-02T06:49:15;8.07;92.02
83405;SHT30;73331;48.168;20.776;2024-03-02T06:50:48;8.08;91.87
83405;SHT30;73331;48.168;20.776;2024-03-02T06:52:19;8.14;91.83
83405;SHT30;73331;48.168;20.776;2024-03-02T06:53:51;8.17;91.85
83405;SHT30;73331;48.168;20.776;2024-03-02T06:55:21;8.13;91.66
83405;SHT30;73331;48.168;20.776;2024-03-02T06:56:52;8.10;91.76
83405;SHT30;73331;48.168;20.776;2024-03-02T06:58:22;8.15;91.75
83405;SHT30;73331;48.168;20.776;2024-03-02T06:59:53;8.13;91.78
83405;SHT30;73331;48.168;20.776;2024-03-02T07:01:27;8.13;91.72
83405;SHT30;73331;48.168;20.776;2024-03-02T07:02:58;8.14;91.67
83405;SHT30;73331;48.168;20.776;2024-03-02T07:04:29;8.10;91.84
83405;SHT30;73331;48.168;20.776;2024-03-02T07:05:59;8.08;92.01
83405;SHT30;73331;48.168;20.776;2024-03-02T07:07:30;8.08;92.14
83405;SHT30;73331;48.168;20.776;2024-03-02T07:09:00;8.04;92.17
83405;SHT30;73331;48.168;20.776;2024-03-02T07:10:31;8.08;92.20
83405;SHT30;73331;48.168;20.776;2024-03-02T07:12:01;8.17;92.08
83405;SHT30;73331;48.168;20.776;2024-03-02T07:13:32;8.15;91.96
83405;SHT30;73331;48.168;20.776;2024-03-02T07:15:03;8.23;91.83
83405;SHT30;73331;48.168;20.776;2024-03-02T07:16:33;8.25;91.80
83405;SHT30;73331;48.168;20.776;2024-03-02T07:18:04;8.20;91.95
83405;SHT30;73331;48.168;20.776;2024-03-02T07:19:35;8.21;92.15
83405;SHT30;73331;48.168;20.776;2024-03-02T07:21:05;8.20;92.12
83405;SHT30;73331;48.168;20.776;2024-03-02T07:22:36;8.30;91.79
83405;SHT30;73331;48.168;20.776;2024-03-02T07:24:07;8.33;92.01
83405;SHT30;73331;48.168;20.776;2024-03-02T07:25:39;8.35;91.89
83405;SHT30;73331;48.168;20.776;2024-03-02T07:27:10;8.38;91.78
83405;SHT30;73331;48.168;20.776;2024-03-02T07:28:41;8.38;91.81
83405;SHT30;73331;48.168;20.776;2024-03-02T07:30:15;8.41;91.70
83405;SHT30;73331;48.168;20.776;2024-03-02T07:31:48;8.48;91.67
83405;SHT30;73331;48.168;20.776;2024-03-02T07:33:19;8.54;91.67
83405;SHT30;73331;48.168;20.776;2024-03-02T07:34:51;8.61;91.59
83405;SHT30;73331;48.168;20.776;2024-03-02T07:36:22;8.64;91.48
83405;SHT30;73331;48.168;20.776;2024-03-02T07:37:53;8.73;91.47
83405;SHT30;73331;48.168;20.776;2024-03-02T07:39:24;8.80;91.43
83405;SHT30;73331;48.168;20.776;2024-03-02T07:40:55;8.87;91.24
83405;SHT30;73331;48.168;20.776;2024-03-02T07:42:26;8.85;91.14
83405;SHT30;73331;48.168;20.776;2024-03-02T07:43:56;8.96;90.88
83405;SHT30;73331;48.168;20.776;2024-03-02T07:45:27;9.19;90.18
83405;SHT30;73331;48.168;20.776;2024-03-02T07:46:57;9.30;89.88
83405;SHT30;73331;48.168;20.776;2024-03-02T07:48:28;9.46;89.68
83405;SHT30;73331;48.168;20.776;2024-03-02T07:49:58;9.46;89.92
83405;SHT30;73331;48.168;20.776;2024-03-02T07:51:29;9.47;90.12
83405;SHT30;73331;48.168;20.776;2024-03-02T07:52:59;9.50;90.65
83405;SHT30;73331;48.168;20.776;2024-03-02T07:54:30;9.47;90.92
83405;SHT30;73331;48.168;20.776;2024-03-02T07:56:00;9.58;90.11
83405;SHT30;73331;48.168;20.776;2024-03-02T07:57:32;9.78;89.51
83405;SHT30;73331;48.168;20.776;2024-03-02T07:59:04;9.84;88.87
83405;SHT30;73331;48.168;20.776;2024-03-02T08:00:34;9.74;89.70
83405;SHT30;73331;48.168;20.776;2024-03-02T08:02:06;9.92;89.59
83405;SHT30;73331;48.168;20.776;2024-03-02T08:03:37;9.74;90.00
83405;SHT30;73331;48.168;20.776;2024-03-02T08:05:08;9.73;89.68
83405;SHT30;73331;48.168;20.776;2024-03-02T08:06:38;9.65;89.50
83405;SHT30;73331;48.168;20.776;2024-03-02T08:08:09;9.62;89.61
83405;SHT30;73331;48.168;20.776;2024-03-02T08:09:39;9.74;89.58
83405;SHT30;73331;48.168;20.776;2024-03-02T08:11:10;9.70;89.40
83405;SHT30;73331;48.168;20.776;2024-03-02T08:12:40;9.65;89.74
83405;SHT30;73331;48.168;20.776;2024-03-02T08:14:11;9.75;89.45
83405;SHT30;73331;48.168;20.776;2024-03-02T08:15:41;9.71;89.16
83405;SHT30;73331;48.168;20.776;2024-03-02T08:17:12;10.11;88.16
83405;SHT30;73331;48.168;20.776;2024-03-02T08:18:42;10.50;85.88
83405;SHT30;73331;48.168;20.776;2024-03-02T08:20:13;10.72;85.21
83405;SHT30;73331;48.168;20.776;2024-03-02T08:21:43;10.86;84.56
83405;SHT30;73331;48.168;20.776;2024-03-02T08:23:14;10.99;84.15
83405;SHT30;73331;48.168;20.776;2024-03-02T08:24:45;11.06;83.20
83405;SHT30;73331;48.168;20.776;2024-03-02T08:26:15;11.10;82.84
83405;SHT30;73331;48.168;20.776;2024-03-02T08:27:46;11.13;83.05
83405;SHT30;73331;48.168;20.776;2024-03-02T08:29:16;10.90;84.00
83405;SHT30;73331;48.168;20.776;2024-03-02T08:30:47;10.84;83.83
83405;SHT30;73331;48.168;20.776;2024-03-02T08:32:17;10.90;84.52
83405;SHT30;73331;48.168;20.776;2024-03-02T08:33:48;11.03;83.77
83405;SHT30;73331;48.168;20.776;2024-03-02T08:35:18;11.00;84.37
83405;SHT30;73331;48.168;20.776;2024-03-02T08:36:49;11.06;83.72
83405;SHT30;73331;48.168;20.776;2024-03-02T08:38:20;11.10;83.49
83405;SHT30;73331;48.168;20.776;2024-03-02T08:39:50;11.16;83.50
83405;SHT30;73331;48.168;20.776;2024-03-02T08:41:21;11.17;83.12
83405;SHT30;73331;48.168;20.776;2024-03-02T08:42:52;11.31;82.43
83405;SHT30;73331;48.168;20.776;2024-03-02T08:44:22;11.37;82.12
83405;SHT30;73331;48.168;20.776;2024-03-02T08:45:53;11.28;81.93
83405;SHT30;73331;48.168;20.776;2024-03-02T08:47:23;11.13;82.66
83405;SHT30;73331;48.168;20.776;2024-03-02T08:48:54;10.86;84.31
83405;SHT30;73331;48.168;20.776;2024-03-02T08:50:24;10.84;85.49
83405;SHT30;73331;48.168;20.776;2024-03-02T08:51:55;10.72;85.01
83405;SHT30;73331;48.168;20.776;2024-03-02T08:53:25;10.95;84.55
83405;SHT30;73331;48.168;20.776;2024-03-02T08:54:56;11.00;84.19
83405;SHT30;73331;48.168;20.776;2024-03-02T08:56:27;10.67;85.06
83405;SHT30;73331;48.168;20.776;2024-03-02T08:57:57;10.63;86.20
83405;SHT30;73331;48.168;20.776;2024-03-02T08:59:28;10.99;84.55
83405;SHT30;73331;48.168;20.776;2024-03-02T09:00:58;10.95;84.82
83405;SHT30;73331;48.168;20.776;2024-03-02T09:02:29;11.16;84.10
83405;SHT30;73331;48.168;20.776;2024-03-02T09:03:59;11.26;84.15
83405;SHT30;73331;48.168;20.776;2024-03-02T09:05:30;11.18;84.59
83405;SHT30;73331;48.168;20.776;2024-03-02T09:07:01;11.34;83.36
83405;SHT30;73331;48.168;20.776;2024-03-02T09:08:31;11.50;82.69
83405;SHT30;73331;48.168;20.776;2024-03-02T09:10:02;11.51;82.68
83405;SHT30;73331;48.168;20.776;2024-03-02T09:11:33;11.65;82.44
83405;SHT30;73331;48.168;20.776;2024-03-02T09:13:03;11.74;82.04
83405;SHT30;73331;48.168;20.776;2024-03-02T09:14:35;11.89;81.49
83405;SHT30;73331;48.168;20.776;2024-03-02T09:16:06;11.92;81.70
83405;SHT30;73331;48.168;20.776;2024-03-02T09:17:37;11.91;81.66
83405;SHT30;73331;48.168;20.776;2024-03-02T09:19:08;11.93;81.12
83405;SHT30;73331;48.168;20.776;2024-03-02T09:20:39;11.60;82.89
83405;SHT30;73331;48.168;20.776;2024-03-02T09:22:10;11.71;82.59
83405;SHT30;73331;48.168;20.776;2024-03-02T09:23:40;11.78;81.99
83405;SHT30;73331;48.168;20.776;2024-03-02T09:25:11;11.62;82.71
83405;SHT30;73331;48.168;20.776;2024-03-02T09:26:41;11.75;82.06
83405;SHT30;73331;48.168;20.776;2024-03-02T09:28:12;11.77;82.05
83405;SHT30;73331;48.168;20.776;2024-03-02T09:29:43;11.70;81.94
83405;SHT30;73331;48.168;20.776;2024-03-02T09:31:13;11.62;81.96
83405;SHT30;73331;48.168;20.776;2024-03-02T09:32:44;11.71;81.67
83405;SHT30;73331;48.168;20.776;2024-03-02T09:34:14;11.42;82.85